Time;durP1;ratioP1;P1;durP2;ratioP2;P2;SDS_P1;SDS_P2;PMS_P1;PMS_P2;Temp;Humidity;BMP_temperature;BMP_pressure;BME280_temperature;BME280_humidity;BME280_pressure;Samples;Min_cycle;Max_cycle;Signal;HPM_P1;HPM_P2
2023/05/13 00:00:29;;;;;;;3.70;1.25;;;;;;;14.94;45.67;101558.50;15704764;28;20060;-51
2023/05/13 00:08:05;;;;;;;2.65;0.95;;;;;;;14.31;47.07;101555.72;15690676;28;20052;-52
2023/05/13 00:15:40;;;;;;;3.17;0.98;;;;;;;14.18;47.15;101556.63;15704125;28;20398;-52
2023/05/13 00:23:13;;;;;;;1.48;0.73;;;;;;;14.07;47.69;101565.38;15685963;28;20444;-52
2023/05/13 00:30:48;;;;;;;0.83;0.80;;;;;;;14.28;47.51;101566.97;15684980;28;20047;-55
2023/05/13 00:38:20;;;;;;;4.07;1.08;;;;;;;14.64;47.26;101579.06;15672326;28;20256;-53
2023/05/13 00:45:55;;;;;;;1.53;0.70;;;;;;;14.63;47.37;101578.22;15682406;28;20045;-53
2023/05/13 00:53:27;;;;;;;3.17;1.50;;;;;;;14.38;47.55;101577.31;15649025;28;20041;-52
2023/05/13 01:01:11;;;;;;;2.43;1.20;;;;;;;14.46;47.97;101586.00;15684026;28;20563;-52
2023/05/13 01:08:52;;;;;;;2.45;1.30;;;;;;;14.32;47.93;101580.88;15683075;28;20045;-52
2023/05/13 01:16:35;;;;;;;2.03;1.33;;;;;;;14.16;48.64;101596.50;15651445;28;20076;-53
2023/05/13 01:24:09;;;;;;;0.80;0.63;;;;;;;14.21;48.58;101598.56;15715118;22;20389;-46
2023/05/13 01:31:42;;;;;;;2.40;1.08;;;;;;;13.94;48.62;101606.75;15757442;28;20056;-48
2023/05/13 01:39:19;;;;;;;0.60;0.45;;;;;;;13.06;50.02;101610.69;15716858;28;20032;-48
2023/05/13 01:46:53;;;;;;;1.15;0.80;;;;;;;12.61;51.08;101610.38;15716051;28;20113;-47
2023/05/13 01:54:27;;;;;;;2.67;1.57;;;;;;;12.60;51.36;101616.81;15732327;28;20068;-44
2023/05/13 02:02:06;;;;;;;4.68;1.25;;;;;;;12.50;51.44;101611.81;15699763;28;20040;-47
2023/05/13 02:09:41;;;;;;;4.88;1.50;;;;;;;12.58;51.44;101621.53;15774363;28;20068;-46
2023/05/13 02:17:14;;;;;;;3.00;1.63;;;;;;;12.76;51.09;101614.56;15713974;28;20056;-48
2023/05/13 02:24:49;;;;;;;1.67;0.90;;;;;;;12.32;51.82;101609.66;15743898;28;20040;-50
2023/05/13 02:32:22;;;;;;;2.05;1.10;;;;;;;12.61;51.14;101624.66;15752797;28;20059;-46
2023/05/13 02:39:57;;;;;;;0.75;0.70;;;;;;;12.92;50.90;101623.31;15765975;28;20047;-46
2023/05/13 02:47:30;;;;;;;2.42;1.45;;;;;;;12.72;51.06;101625.94;15758648;28;20555;-46
2023/05/13 02:55:10;;;;;;;1.40;0.75;;;;;;;12.95;50.68;101629.09;15723765;28;20040;-46
2023/05/13 03:02:43;;;;;;;3.50;2.03;;;;;;;12.69;50.88;101629.88;15722786;28;20650;-44
2023/05/13 03:10:17;;;;;;;1.43;0.80;;;;;;;12.50;51.76;101631.47;15742018;28;20131;-46
2023/05/13 03:17:51;;;;;;;2.08;1.02;;;;;;;12.47;51.80;101639.13;15757045;28;20408;-44
2023/05/13 03:25:27;;;;;;;3.55;0.80;;;;;;;12.45;51.39;101638.47;15723054;28;20080;-46
2023/05/13 03:33:03;;;;;;;3.70;1.55;;;;;;;13.00;50.57;101636.59;15755521;28;20488;-49
2023/05/13 03:40:39;;;;;;;2.03;1.20;;;;;;;12.35;51.65;101649.63;15737877;28;20115;-44
2023/05/13 03:48:11;;;;;;;16.77;1.30;;;;;;;12.57;51.70;101646.81;15728340;28;20037;-48
2023/05/13 03:55:47;;;;;;;2.00;1.27;;;;;;;12.08;52.60;101654.03;15708197;28;20140;-47
2023/05/13 04:03:19;;;;;;;2.58;0.93;;;;;;;12.23;51.67;101657.44;15713563;28;20180;-50
2023/05/13 04:10:56;;;;;;;1.20;0.85;;;;;;;12.47;51.62;101663.34;15743332;28;20048;-48
2023/05/13 04:18:29;;;;;;;1.73;0.88;;;;;;;12.22;52.08;101681.88;15717397;28;20040;-45
2023/05/13 04:26:03;;;;;;;;;;;;;;;12.07;52.53;101689.19;15707001;28;20119;-49
2023/05/13 04:33:36;;;;;;;1.05;0.77;;;;;;;12.25;52.08;101694.91;15701060;28;19921;-47
2023/05/13 04:41:13;;;;;;;2.20;0.95;;;;;;;12.55;51.59;101703.59;15724223;28;20048;-45
2023/05/13 04:48:50;;;;;;;4.43;1.73;;;;;;;12.75;51.08;101703.66;15684605;28;20044;-46
2023/05/13 04:56:25;;;;;;;1.15;1.00;;;;;;;12.91;49.90;101711.38;15709353;28;20048;-47
2023/05/13 05:03:59;;;;;;;1.50;0.82;;;;;;;13.50;49.08;101718.84;15704672;28;20128;-53
2023/05/13 05:11:34;;;;;;;2.28;0.88;;;;;;;13.69;48.88;101721.75;15700968;28;20048;-45
2023/05/13 05:19:07;;;;;;;2.40;1.17;;;;;;;14.13;46.92;101731.06;15703804;28;20036;-45
2023/05/13 05:26:43;;;;;;;2.63;1.48;;;;;;;14.30;46.93;101724.19;15700196;28;20437;-49
2023/05/13 05:34:16;;;;;;;2.97;1.40;;;;;;;14.84;45.52;101735.72;15697036;28;20053;-46
2023/05/13 05:41:51;;;;;;;2.03;1.40;;;;;;;15.76;43.15;101746.06;15665936;28;20067;-52
2023/05/13 05:49:24;;;;;;;1.67;0.90;;;;;;;16.72;42.73;101744.72;15669673;28;20111;-45
2023/05/13 05:56:58;;;;;;;3.57;1.40;;;;;;;17.12;40.55;101740.69;15668546;28;20450;-49
2023/05/13 06:04:31;;;;;;;5.72;0.93;;;;;;;18.71;38.14;101751.69;15691020;28;20406;-48
2023/05/13 06:12:07;;;;;;;2.22;0.98;;;;;;;18.94;35.92;101748.91;15668340;28;20041;-46
2023/05/13 06:19:41;;;;;;;2.83;1.10;;;;;;;18.64;36.35;101724.59;15672020;28;20424;-51
2023/05/13 06:27:15;;;;;;;3.15;1.08;;;;;;;18.13;37.90;101742.47;15711235;28;20041;-48
2023/05/13 06:34:51;;;;;;;1.70;0.93;;;;;;;18.17;36.54;101742.84;15654956;28;20049;-48
2023/05/13 06:42:25;;;;;;;2.15;1.10;;;;;;;18.50;35.44;101744.94;15677482;28;20072;-53
2023/05/13 06:50:05;;;;;;;1.00;0.70;;;;;;;19.64;33.91;101738.81;15673500;28;20045;-49
2023/05/13 06:57:40;;;;;;;2.83;1.05;;;;;;;20.05;32.42;101738.41;15652642;28;20087;-50
2023/05/13 07:05:13;;;;;;;1.10;0.70;;;;;;;20.18;31.05;101726.31;15667377;28;20079;-52
2023/05/13 07:12:47;;;;;;;;;;;;;;;20.49;30.26;101711.25;15673960;28;20110;-47
2023/05/13 07:20:21;;;;;;;1.52;0.70;;;;;;;21.29;29.03;101704.22;15664259;28;19927;-52
2023/05/13 07:27:55;;;;;;;8.15;1.10;;;;;;;21.96;26.83;101710.28;15680699;28;20049;-45
2023/05/13 07:35:27;;;;;;;1.05;0.55;;;;;;;21.63;27.54;101701.28;15670741;28;20060;-45
2023/05/13 07:43:01;;;;;;;2.67;1.38;;;;;;;23.43;26.03;101702.69;15671444;28;20213;-49
2023/05/13 07:50:34;;;;;;;1.92;1.00;;;;;;;21.88;26.63;101696.03;15665666;28;20045;-47
2023/05/13 07:58:08;;;;;;;;;;;;;;;21.89;26.57;101691.38;15676810;28;20033;-48
2023/05/13 08:05:40;;;;;;;1.02;0.60;;;;;;;21.54;27.33;101686.44;15671570;28;19925;-46
2023/05/13 08:13:20;;;;;;;;;;;;;;;21.64;27.63;101698.31;15667741;28;20065;-49
2023/05/13 08:20:53;;;;;;;0.63;0.38;;;;;;;21.99;26.89;101707.84;15659902;28;19921;-50
2023/05/13 08:28:28;;;;;;;2.97;1.15;;;;;;;21.81;26.38;101702.78;15710841;28;20039;-50
2023/05/13 08:36:01;;;;;;;9.52;4.20;;;;;;;22.23;27.43;101712.94;15726679;28;20086;-49
2023/05/13 08:43:36;;;;;;;4.72;0.70;;;;;;;21.89;27.63;101711.31;15722849;28;20465;-50
2023/05/13 08:51:09;;;;;;;1.38;1.05;;;;;;;22.06;27.19;101715.84;15730046;28;20049;-51
2023/05/13 08:58:43;;;;;;;2.60;1.30;;;;;;;22.27;27.68;101712.16;15744923;28;20044;-49
2023/05/13 09:06:16;;;;;;;2.30;0.95;;;;;;;22.41;27.80;101696.91;15736661;28;20045;-50
2023/05/13 09:14:11;;;;;;;1.40;0.70;;;;;;;22.18;27.36;101702.78;15747372;28;20561;-48
2023/05/13 09:21:44;;;;;;;0.82;0.57;;;;;;;21.93;27.93;101700.69;15761084;28;20048;-54
2023/05/13 09:29:21;;;;;;;2.75;1.20;;;;;;;22.23;28.50;101702.00;15739682;28;20137;-49
2023/05/13 09:37:01;;;;;;;1.27;0.63;;;;;;;22.47;26.80;101699.66;15736137;28;20131;-49
2023/05/13 09:44:36;;;;;;;1.60;0.70;;;;;;;22.29;27.46;101699.06;15737376;28;20037;-53
2023/05/13 09:52:10;;;;;;;5.90;0.90;;;;;;;22.56;23.99;101692.59;15728939;28;20573;-50
2023/05/13 09:59:44;;;;;;;0.75;0.57;;;;;;;22.05;24.36;101687.63;15722593;28;20040;-48
2023/05/13 10:07:28;;;;;;;2.13;1.15;;;;;;;22.51;23.13;101690.66;15730578;28;20079;-53
2023/05/13 10:15:02;;;;;;;1.05;0.50;;;;;;;22.91;23.65;101668.13;15728745;28;20033;-50
2023/05/13 10:22:36;;;;;;;5.47;1.00;;;;;;;23.11;22.55;101694.72;15731611;28;20364;-51
2023/05/13 10:30:13;;;;;;;1.00;0.50;;;;;;;22.27;22.82;101667.56;15698550;28;20044;-51
2023/05/13 10:38:01;;;;;;;2.20;0.70;;;;;;;23.50;23.22;101663.22;15734405;28;20047;-53
2023/05/13 10:45:35;;;;;;;3.70;0.80;;;;;;;23.32;24.34;101673.66;15765331;28;20036;-49
2023/05/13 10:53:10;;;;;;;2.63;0.60;;;;;;;24.07;23.02;101678.56;15738754;28;20135;-52
2023/05/13 11:00:51;;;;;;;1.10;0.70;;;;;;;24.22;21.63;101653.81;15750623;28;20070;-52
2023/05/13 11:08:37;;;;;;;0.70;0.50;;;;;;;24.70;19.61;101654.19;15725630;28;20612;-51
2023/05/13 11:16:13;;;;;;;1.25;0.60;;;;;;;24.25;20.33;101658.75;15751335;28;20105;-50
2023/05/13 11:23:56;;;;;;;1.58;0.75;;;;;;;23.90;21.66;101652.25;15708698;28;20082;-50
2023/05/13 11:31:43;;;;;;;0.40;0.40;;;;;;;24.13;20.08;101645.34;15738773;28;20517;-50
2023/05/13 11:39:18;;;;;;;1.50;0.70;;;;;;;24.63;19.00;101643.53;15720270;28;20074;-54
2023/05/13 11:46:57;;;;;;;0.55;0.40;;;;;;;24.71;20.51;101631.09;15746525;28;20500;-50
2023/05/13 11:54:30;;;;;;;0.50;0.50;;;;;;;23.93;21.25;101640.75;15725622;28;20071;-50
2023/05/13 12:02:04;;;;;;;1.98;0.93;;;;;;;24.60;21.72;101638.59;15707654;28;20394;-53
2023/05/13 12:09:37;;;;;;;5.25;0.70;;;;;;;25.16;19.91;101627.25;15717845;28;20044;-49
2023/05/13 12:17:12;;;;;;;1.42;0.75;;;;;;;25.98;18.77;101617.47;15716400;28;20067;-51
2023/05/13 12:24:44;;;;;;;1.90;0.82;;;;;;;26.31;18.92;101626.69;15729221;28;20101;-52
2023/05/13 12:32:19;;;;;;;0.75;0.52;;;;;;;25.87;18.90;101616.72;15733786;28;20049;-54
2023/05/13 12:40:09;;;;;;;1.30;0.60;;;;;;;25.39;19.32;101620.22;15736526;28;20040;-50
2023/05/13 12:47:50;;;;;;;2.20;0.73;;;;;;;23.96;21.02;101631.13;15714143;28;20068;-48
2023/05/13 12:55:26;;;;;;;7.80;2.25;;;;;;;25.86;20.35;101621.41;15704028;28;20408;-51
2023/05/13 13:03:00;;;;;;;3.33;0.90;;;;;;;24.46;21.30;101620.28;15696647;28;20060;-52
2023/05/13 13:10:33;;;;;;;1.35;0.50;;;;;;;23.26;23.12;101617.19;15729440;28;20544;-54
2023/05/13 13:18:07;;;;;;;1.35;0.60;;;;;;;23.13;23.20;101615.03;15733802;28;20612;-53
2023/05/13 13:25:40;;;;;;;2.08;0.90;;;;;;;22.64;23.52;101623.66;15709818;28;20068;-51
2023/05/13 13:33:16;;;;;;;0.80;0.65;;;;;;;23.35;23.55;101610.06;15772127;28;20062;-49
2023/05/13 13:40:48;;;;;;;2.67;1.23;;;;;;;23.57;24.09;101612.53;15754311;28;20055;-50
2023/05/13 13:48:24;;;;;;;1.83;0.90;;;;;;;23.02;24.33;101611.44;15747355;28;20172;-47
2023/05/13 13:55:56;;;;;;;1.45;0.90;;;;;;;22.79;25.52;101601.78;15736777;28;20536;-47
2023/05/13 14:03:30;;;;;;;4.53;2.25;;;;;;;22.81;23.67;101590.59;15718048;28;20055;-54
2023/05/13 14:11:05;;;;;;;1.20;0.85;;;;;;;23.54;26.78;101587.59;15738244;28;20036;-47
2023/05/13 14:18:39;;;;;;;3.78;0.65;;;;;;;23.03;24.74;101582.13;15746359;28;20045;-46
2023/05/13 14:26:14;;;;;;;3.30;0.90;;;;;;;23.02;23.51;101575.84;15726687;28;20048;-46
2023/05/13 14:33:48;;;;;;;1.42;0.82;;;;;;;22.84;23.90;101566.22;15727931;28;20052;-50
2023/05/13 14:41:22;;;;;;;1.98;0.60;;;;;;;23.12;23.48;101566.81;15720299;28;20113;-48
2023/05/13 14:48:56;;;;;;;1.92;1.00;;;;;;;23.02;22.58;101569.56;15730044;28;20118;-48
2023/05/13 14:56:29;;;;;;;1.30;0.80;;;;;;;22.79;24.31;101563.47;15740697;28;20143;-48
2023/05/13 15:04:03;;;;;;;1.85;0.85;;;;;;;22.66;25.04;101566.72;15698821;28;20078;-46
2023/05/13 15:11:37;;;;;;;2.75;1.33;;;;;;;22.73;24.95;101566.47;15750504;28;20401;-51
2023/05/13 15:19:12;;;;;;;1.70;0.85;;;;;;;22.92;24.68;101565.72;15734609;28;20086;-47
2023/05/13 15:26:48;;;;;;;3.50;0.73;;;;;;;22.69;24.16;101563.47;15750489;28;20079;-50
2023/05/13 15:34:22;;;;;;;1.45;0.93;;;;;;;22.41;24.90;101557.38;15732506;28;20595;-46
2023/05/13 15:41:56;;;;;;;5.13;2.05;;;;;;;23.16;25.33;101554.22;15751005;28;20115;-53
2023/05/13 15:49:31;;;;;;;1.38;0.80;;;;;;;22.78;26.13;101561.00;15771452;28;20032;-56
2023/05/13 15:57:04;;;;;;;1.10;0.63;;;;;;;22.64;25.82;101563.47;15734435;28;20472;-48
2023/05/13 16:04:38;;;;;;;1.42;1.08;;;;;;;21.28;31.38;101567.97;15729559;28;20123;-50
2023/05/13 16:12:11;;;;;;;20.90;2.05;;;;;;;20.58;34.04;101577.97;15754000;28;20448;-51
2023/05/13 16:19:45;;;;;;;;;;;;;;;20.58;35.24;101588.88;15759588;28;20044;-52
2023/05/13 16:27:19;;;;;;;6.82;1.58;;;;;;;20.24;36.37;101596.38;15752549;28;19927;-47
2023/05/13 16:34:53;;;;;;;1.35;0.85;;;;;;;19.84;36.49;101605.63;15726324;28;20409;-44
2023/05/13 16:42:26;;;;;;;1.60;0.70;;;;;;;20.07;35.67;101610.03;15716843;28;20052;-48
2023/05/13 16:50:01;;;;;;;4.63;0.57;;;;;;;20.24;34.90;101618.19;15756602;28;20097;-48
2023/05/13 16:57:34;;;;;;;3.17;1.00;;;;;;;19.62;36.70;101630.91;15770982;28;20135;-49
2023/05/13 17:05:08;;;;;;;;;;;;;;;19.56;38.50;101642.78;15759890;28;20115;-47
2023/05/13 17:12:40;;;;;;;1.38;0.80;;;;;;;19.68;38.04;101639.16;15752530;28;19924;-47
2023/05/13 17:20:15;;;;;;;1.45;0.98;;;;;;;19.14;37.89;101647.78;15753308;28;20134;-49
2023/05/13 17:27:47;;;;;;;1.95;1.10;;;;;;;19.39;37.57;101644.66;15729137;28;20087;-45
2023/05/13 17:35:21;;;;;;;1.67;1.05;;;;;;;19.35;37.38;101638.91;15750328;28;20051;-47
2023/05/13 17:42:54;;;;;;;1.60;0.55;;;;;;;19.23;38.63;101651.75;15728850;28;20045;-46
2023/05/13 17:50:29;;;;;;;;;;;;;;;19.00;39.07;101650.00;15748188;28;20636;-46
2023/05/13 17:58:02;;;;;;;1.85;0.80;;;;;;;18.64;39.04;101653.06;15756236;28;19920;-48
2023/05/13 18:05:36;;;;;;;0.70;0.43;;;;;;;18.57;39.51;101661.38;15749954;28;20447;-53
2023/05/13 18:13:08;;;;;;;2.28;0.85;;;;;;;18.57;40.13;101662.19;15732358;28;20040;-47
2023/05/13 18:20:42;;;;;;;1.70;0.93;;;;;;;18.27;40.18;101661.53;15728424;28;20086;-49
2023/05/13 18:28:15;;;;;;;2.45;1.05;;;;;;;18.71;39.44;101659.22;15760552;28;20040;-51
2023/05/13 18:35:50;;;;;;;2.22;1.00;;;;;;;18.26;40.67;101659.88;15770480;28;20050;-48
2023/05/13 18:43:23;;;;;;;2.15;1.10;;;;;;;18.63;40.60;101656.84;15750208;28;20047;-51
2023/05/13 18:50:57;;;;;;;1.42;0.68;;;;;;;18.39;40.24;101656.09;15715325;28;20036;-48
2023/05/13 18:58:29;;;;;;;1.27;0.63;;;;;;;18.51;39.73;101662.31;15736842;28;20453;-50
2023/05/13 19:06:04;;;;;;;;;;;;;;;18.59;39.16;101656.50;15716314;28;20048;-46
2023/05/13 19:13:36;;;;;;;1.42;0.90;;;;;;;18.85;40.37;101663.31;15723600;28;19928;-52
2023/05/13 19:29:04;;;;;;;1.85;0.70;;;;;;;18.53;44.85;101668.34;15572904;28;20057;-53
2023/05/13 19:36:37;;;;;;;3.40;1.08;;;;;;;18.37;43.14;101664.47;15557093;28;20074;-55
2023/05/13 19:44:11;;;;;;;0.85;0.65;;;;;;;17.37;44.36;101670.00;15576436;28;20233;-54
2023/05/13 19:51:44;;;;;;;1.98;1.10;;;;;;;17.44;45.32;101666.13;15554862;28;20413;-55
2023/05/13 19:59:18;;;;;;;1.42;0.88;;;;;;;17.27;46.12;101665.97;15596074;28;20056;-54
2023/05/13 20:06:51;;;;;;;1.77;1.00;;;;;;;16.85;47.90;101681.38;15561726;28;20038;-54
2023/05/13 20:14:40;;;;;;;2.40;1.03;;;;;;;16.71;48.18;101669.03;15595472;28;20529;-52
2023/05/13 20:22:13;;;;;;;2.90;1.50;;;;;;;16.26;48.74;101664.75;15569140;28;20049;-51
2023/05/13 20:29:48;;;;;;;4.95;1.23;;;;;;;16.23;49.03;101676.03;15551575;28;20109;-56
2023/05/13 20:37:21;;;;;;;3.28;1.45;;;;;;;15.71;50.81;101670.06;15550449;28;20108;-56
2023/05/13 20:44:55;;;;;;;4.00;2.00;;;;;;;15.82;49.86;101672.06;15560636;28;20053;-56
2023/05/13 20:52:28;;;;;;;1.95;1.52;;;;;;;15.79;49.44;101672.50;15535223;28;20042;-54
2023/05/13 21:00:02;;;;;;;3.43;1.87;;;;;;;15.78;49.08;101673.56;15506627;28;20104;-55
2023/05/13 21:07:35;;;;;;;2.83;1.23;;;;;;;15.60;49.94;101664.53;15555814;28;20449;-51
2023/05/13 21:15:10;;;;;;;3.22;1.83;;;;;;;15.58;50.08;101667.47;15559897;28;20069;-56
2023/05/13 21:22:43;;;;;;;10.52;1.70;;;;;;;15.56;49.64;101674.94;15593449;28;20129;-55
2023/05/13 21:30:17;;;;;;;6.13;2.17;;;;;;;15.39;50.18;101671.97;15548823;28;20041;-54
2023/05/13 21:37:50;;;;;;;4.78;2.67;;;;;;;15.14;51.48;101668.38;15559623;28;20351;-53
2023/05/13 21:45:25;;;;;;;3.20;1.90;;;;;;;14.92;51.94;101665.19;15588330;28;20048;-52
2023/05/13 21:52:58;;;;;;;3.17;2.15;;;;;;;14.73;52.57;101675.06;15579491;28;20038;-54
2023/05/13 22:00:32;;;;;;;4.97;2.30;;;;;;;14.52;53.29;101668.09;15575731;28;20045;-51
2023/05/13 22:08:04;;;;;;;3.92;2.70;;;;;;;14.39;53.54;101666.22;15570026;28;20111;-52
2023/05/13 22:15:38;;;;;;;4.83;2.17;;;;;;;14.30;53.96;101664.78;15557144;28;20053;-52
2023/05/13 22:23:11;;;;;;;6.00;2.20;;;;;;;14.23;53.84;101662.13;15561989;28;20058;-53
2023/05/13 22:30:46;;;;;;;3.60;1.85;;;;;;;14.33;53.65;101660.84;15602282;28;20055;-54
2023/05/13 22:38:18;;;;;;;4.30;2.42;;;;;;;14.22;54.17;101657.75;15613483;28;20049;-54
2023/05/13 22:45:52;;;;;;;3.93;2.40;;;;;;;13.98;54.82;101664.66;15606521;28;20510;-54
2023/05/13 22:53:25;;;;;;;3.53;2.33;;;;;;;14.00;54.85;101669.84;15582778;28;20049;-54
2023/05/13 23:00:59;;;;;;;3.57;2.73;;;;;;;13.77;55.63;101659.50;15601923;28;20069;-54
2023/05/13 23:08:31;;;;;;;3.42;2.55;;;;;;;13.71;56.16;101653.06;15589045;28;20046;-53
2023/05/13 23:16:06;;;;;;;4.83;2.40;;;;;;;13.66;56.13;101650.16;15578941;28;20128;-54
2023/05/13 23:23:39;;;;;;;5.45;2.70;;;;;;;13.61;56.77;101641.03;15589068;28;20046;-52
2023/05/13 23:31:13;;;;;;;4.97;2.83;;;;;;;13.52;57.04;101648.50;15544653;28;20057;-54
2023/05/13 23:38:46;;;;;;;11.13;2.08;;;;;;;13.57;56.49;101643.31;15564764;28;20487;-55
2023/05/13 23:46:20;;;;;;;5.20;2.37;;;;;;;13.51;56.76;101636.88;15562511;28;20622;-55
2023/05/13 23:53:54;;;;;;;5.95;2.30;;;;;;;13.43;57.52;101636.25;15544957;28;20046;-52
